Time;durP1;ratioP1;P1;durP2;ratioP2;P2;SDS_P1;SDS_P2;PMS_P1;PMS_P2;Temp;Humidity;BMP_temperature;BMP_pressure;BME280_temperature;BME280_humidity;BME280_pressure;Samples;Min_cycle;Max_cycle;Signal;HPM_P1;HPM_P2
2022/08/07 00:00:23;;;;;;;6.30;1.70;;;;;;;17.12;63.79;101226.77;106224;1270;25311;-73
2022/08/07 00:02:50;;;;;;;2.90;1.80;;;;;;;17.07;63.86;101228.09;106327;1271;22883;-72
2022/08/07 00:05:20;;;;;;;2.90;1.60;;;;;;;17.02;63.77;101226.59;106309;1271;22662;-72
2022/08/07 00:07:50;;;;;;;6.20;1.60;;;;;;;16.96;63.90;101227.25;106290;1271;23951;-73
2022/08/07 00:10:29;;;;;;;4.90;1.70;;;;;;;16.94;63.91;101227.13;106434;1271;24851;-73
2022/08/07 00:13:00;;;;;;;4.10;2.00;;;;;;;16.90;63.89;101228.10;106700;1271;23639;-85
2022/08/07 00:15:36;;;;;;;3.80;1.70;;;;;;;16.86;63.92;101232.48;106267;1271;22671;-72
2022/08/07 00:18:18;;;;;;;3.30;1.80;;;;;;;16.80;63.65;101238.46;106472;1271;23902;-70
2022/08/07 00:20:56;;;;;;;2.70;1.70;;;;;;;16.75;63.96;101242.83;106357;1271;25445;-70
2022/08/07 00:23:29;;;;;;;1.50;1.40;;;;;;;16.72;64.22;101240.23;106202;1271;25675;-72
2022/08/07 00:25:57;;;;;;;2.00;1.30;;;;;;;16.70;64.26;101236.70;106310;1271;22554;-73
2022/08/07 00:28:38;;;;;;;1.70;1.40;;;;;;;16.72;64.15;101239.88;106339;1271;26606;-70
2022/08/07 00:31:11;;;;;;;3.90;1.70;;;;;;;16.71;64.12;101242.19;106220;1271;23933;-74
2022/08/07 00:33:43;;;;;;;3.00;1.80;;;;;;;16.71;63.99;101245.77;106290;1271;25242;-74
2022/08/07 00:36:13;;;;;;;4.90;1.50;;;;;;;16.68;64.16;101247.25;106138;1275;24295;-73
2022/08/07 00:38:42;;;;;;;3.00;1.70;;;;;;;16.66;64.09;101247.27;105804;1281;24046;-76
2022/08/07 00:41:10;;;;;;;5.60;1.90;;;;;;;16.62;64.00;101242.38;105848;1281;22535;-70
2022/08/07 00:43:42;;;;;;;3.10;2.00;;;;;;;16.55;64.32;101248.56;105901;1280;25542;-75
2022/08/07 00:46:30;;;;;;;3.30;2.10;;;;;;;16.55;64.40;101248.40;105879;1280;25290;-72
2022/08/07 00:49:01;;;;;;;2.90;1.70;;;;;;;16.55;64.49;101246.09;105992;1281;22529;-75
2022/08/07 00:51:29;;;;;;;7.00;1.60;;;;;;;16.53;64.53;101251.80;105748;1281;22721;-77
2022/08/07 00:54:16;;;;;;;3.80;1.80;;;;;;;16.48;64.54;101250.49;105795;1279;22537;-74
2022/08/07 00:56:47;;;;;;;6.10;2.20;;;;;;;16.46;64.46;101249.83;106164;1269;22530;-76
2022/08/07 00:59:17;;;;;;;3.10;1.80;;;;;;;16.45;64.68;101248.95;106305;1274;24794;-75
2022/08/07 01:02:03;;;;;;;2.40;1.70;;;;;;;16.41;64.39;101246.19;106790;1271;24213;-73
2022/08/07 01:04:46;;;;;;;3.60;2.00;;;;;;;16.37;64.45;101255.50;106257;1271;26599;-75
2022/08/07 01:07:14;;;;;;;4.60;2.10;;;;;;;16.30;64.32;101249.94;106465;1274;22983;-73
2022/08/07 01:09:41;;;;;;;3.80;1.60;;;;;;;16.28;64.51;101249.65;106560;1268;25700;-74
2022/08/07 01:12:29;;;;;;;3.50;1.30;;;;;;;16.27;64.58;101252.70;106547;1271;24272;-74
2022/08/07 01:14:58;;;;;;;2.30;1.40;;;;;;;16.24;64.61;101252.39;106898;1268;22468;-75
2022/08/07 01:17:30;;;;;;;3.70;1.50;;;;;;;16.23;64.88;101251.16;107699;1271;24206;-76
2022/08/07 01:20:07;;;;;;;4.50;2.10;;;;;;;16.22;64.92;101253.31;106164;1274;22890;-74
2022/08/07 01:22:37;;;;;;;5.10;1.90;;;;;;;16.21;65.00;101250.65;106666;1271;22518;-72
2022/08/07 01:25:24;;;;;;;4.90;1.80;;;;;;;16.22;64.85;101251.89;106552;1271;22649;-75
2022/08/07 01:28:11;;;;;;;2.30;1.40;;;;;;;16.20;64.88;101248.00;106671;1268;22701;-74
2022/08/07 01:30:39;;;;;;;4.00;1.70;;;;;;;16.21;65.00;101251.36;106387;1271;22608;-75
2022/08/07 01:33:08;;;;;;;2.70;1.50;;;;;;;16.18;65.05;101253.55;106360;1268;25307;-72
2022/08/07 01:35:35;;;;;;;4.00;1.70;;;;;;;16.14;64.97;101250.08;106492;1268;22540;-72
2022/08/07 01:38:25;;;;;;;3.00;1.80;;;;;;;16.11;65.24;101256.89;106368;1271;25344;-73
2022/08/07 01:41:02;;;;;;;4.80;1.80;;;;;;;16.07;65.12;101257.13;106482;1271;25254;-74
2022/08/07 01:43:30;;;;;;;5.80;1.80;;;;;;;15.99;65.17;101257.25;107274;1269;22599;-74
2022/08/07 01:46:05;;;;;;;4.00;1.90;;;;;;;15.94;65.56;101251.64;106137;1271;22618;-73
2022/08/07 01:48:41;;;;;;;1.90;1.30;;;;;;;15.94;65.69;101252.88;106127;1271;25313;-72
2022/08/07 01:51:19;;;;;;;1.50;1.20;;;;;;;15.96;65.56;101254.80;106312;1271;25318;-74
2022/08/07 01:54:09;;;;;;;3.00;1.90;;;;;;;15.95;65.71;101255.72;106415;1271;22742;-73
2022/08/07 01:57:20;;;;;;;4.30;1.40;;;;;;;15.93;65.82;101249.70;106376;1268;25407;-73
2022/08/07 02:00:10;;;;;;;2.50;1.20;;;;;;;15.91;65.94;101247.60;106414;1269;24454;-74
2022/08/07 02:02:45;;;;;;;1.90;1.50;;;;;;;15.89;65.82;101248.20;105824;1274;24079;-74
2022/08/07 02:05:38;;;;;;;3.90;1.50;;;;;;;15.85;66.11;101245.59;105639;1277;24238;-70
2022/08/07 02:08:32;;;;;;;4.40;1.50;;;;;;;15.83;66.04;101245.45;105989;1277;25358;-70
2022/08/07 02:11:02;;;;;;;2.80;1.60;;;;;;;15.80;66.03;101244.96;105953;1277;25392;-73
2022/08/07 02:13:32;;;;;;;2.50;1.40;;;;;;;15.78;66.17;101247.83;105909;1275;25338;-73
2022/08/07 02:16:23;;;;;;;5.70;1.80;;;;;;;15.75;66.30;101247.36;105978;1277;22528;-72
2022/08/07 02:19:01;;;;;;;3.30;1.40;;;;;;;15.71;66.55;101242.43;106089;1275;22585;-72
2022/08/07 02:21:51;;;;;;;5.70;1.40;;;;;;;15.66;66.35;101241.45;106299;1268;23066;-73
2022/08/07 02:24:24;;;;;;;4.60;1.90;;;;;;;15.64;66.52;101243.10;106791;1271;22473;-72
2022/08/07 02:26:57;;;;;;;3.10;1.70;;;;;;;15.66;66.84;101242.71;106436;1271;25229;-72
2022/08/07 02:29:29;;;;;;;3.20;1.80;;;;;;;15.63;66.70;101239.23;106326;1271;25383;-72
2022/08/07 02:31:59;;;;;;;2.70;1.80;;;;;;;15.64;66.91;101240.79;106402;1269;25599;-76
2022/08/07 02:34:29;;;;;;;3.70;1.60;;;;;;;15.61;66.96;101239.06;106601;1268;24214;-75
2022/08/07 02:36:59;;;;;;;5.30;1.90;;;;;;;15.59;67.06;101242.46;106558;1271;25194;-70
2022/08/07 02:39:27;;;;;;;3.40;1.50;;;;;;;15.59;67.03;101243.00;106528;1268;25404;-72
2022/08/07 02:42:18;;;;;;;3.70;2.00;;;;;;;15.56;67.18;101243.39;106485;1271;25226;-75
2022/08/07 02:44:49;;;;;;;4.00;2.00;;;;;;;15.53;67.18;101242.73;106318;1271;22620;-74
2022/08/07 02:47:21;;;;;;;5.70;2.20;;;;;;;15.50;67.37;101246.86;106310;1271;25002;-76
2022/08/07 02:49:53;;;;;;;5.00;1.70;;;;;;;15.46;67.38;101244.45;106539;1274;25417;-74
2022/08/07 02:52:36;;;;;;;2.90;1.40;;;;;;;15.46;67.44;101242.84;106537;1268;25279;-76
2022/08/07 02:55:10;;;;;;;1.40;1.30;;;;;;;15.47;67.48;101243.19;105873;1277;22849;-75
2022/08/07 02:58:01;;;;;;;4.40;1.70;;;;;;;15.47;67.67;101247.10;106070;1277;22486;-72
2022/08/07 03:00:33;;;;;;;3.90;1.50;;;;;;;15.46;67.68;101249.60;106429;1277;24736;-72
2022/08/07 03:03:04;;;;;;;1.60;1.50;;;;;;;15.43;67.88;101245.73;106099;1277;22550;-70
2022/08/07 03:05:35;;;;;;;2.90;1.70;;;;;;;15.43;67.85;101251.25;105885;1276;25460;-71
2022/08/07 03:08:06;;;;;;;2.50;1.70;;;;;;;15.42;68.11;101253.75;105883;1276;22622;-71
2022/08/07 03:10:39;;;;;;;4.30;1.60;;;;;;;15.41;68.03;101255.71;106058;1281;22545;-72
2022/08/07 03:13:17;;;;;;;6.70;2.10;;;;;;;15.39;68.23;101256.43;105583;1274;23019;-73
2022/08/07 03:15:47;;;;;;;4.20;1.70;;;;;;;15.37;68.13;101257.73;106233;1274;22629;-73
2022/08/07 03:18:23;;;;;;;3.30;1.70;;;;;;;15.38;68.30;101259.30;106214;1273;25559;-74
2022/08/07 03:21:05;;;;;;;3.20;1.40;;;;;;;15.37;68.17;101263.04;106218;1274;25394;-72
2022/08/07 03:23:39;;;;;;;3.40;1.60;;;;;;;15.34;68.39;101262.56;106024;1274;22550;-73
2022/08/07 03:26:31;;;;;;;3.50;1.70;;;;;;;15.34;68.52;101259.17;106153;1274;25536;-72
2022/08/07 03:29:06;;;;;;;5.00;1.80;;;;;;;15.34;68.56;101254.21;106149;1271;22550;-73
2022/08/07 03:31:43;;;;;;;3.70;2.00;;;;;;;15.37;68.43;101255.05;106199;1271;24221;-73
2022/08/07 03:34:19;;;;;;;3.20;1.70;;;;;;;15.35;68.53;101258.63;106350;1268;25232;-73
2022/08/07 03:36:53;;;;;;;3.60;1.60;;;;;;;15.28;68.53;101259.09;106342;1271;24647;-73
2022/08/07 03:39:22;;;;;;;3.00;1.40;;;;;;;15.24;68.57;101258.09;106041;1274;25239;-74
2022/08/07 03:42:10;;;;;;;4.10;1.50;;;;;;;15.22;68.59;101258.65;106003;1274;25382;-73
2022/08/07 03:44:38;;;;;;;2.80;1.60;;;;;;;15.23;68.75;101259.88;106048;1274;22550;-74
2022/08/07 03:47:07;;;;;;;2.60;1.30;;;;;;;15.24;68.69;101258.96;105891;1274;22624;-72
2022/08/07 03:49:45;;;;;;;2.50;1.30;;;;;;;15.23;68.60;101263.25;106728;1274;25536;-70
2022/08/07 03:52:21;;;;;;;4.10;2.00;;;;;;;15.23;68.67;101261.30;106146;1274;22708;-72
2022/08/07 03:54:59;;;;;;;2.80;1.50;;;;;;;15.21;68.58;101262.39;106493;1275;25244;-71
2022/08/07 03:57:37;;;;;;;1.50;1.20;;;;;;;15.22;68.55;101262.56;106200;1268;26490;-70
2022/08/07 04:00:31;;;;;;;4.80;1.90;;;;;;;15.19;68.68;101259.56;106361;1271;22623;-71
2022/08/07 04:03:02;;;;;;;2.80;1.70;;;;;;;15.22;68.81;101265.20;106416;1268;25264;-73
2022/08/07 04:05:39;;;;;;;3.50;1.50;;;;;;;15.23;68.70;101265.38;106368;1271;24769;-74
2022/08/07 04:08:17;;;;;;;3.00;1.70;;;;;;;15.24;68.80;101267.84;106588;1268;22521;-75
2022/08/07 04:10:48;;;;;;;4.40;1.90;;;;;;;15.27;68.59;101267.27;106243;1271;22535;-73
2022/08/07 04:13:36;;;;;;;4.20;2.10;;;;;;;15.31;68.44;101273.41;106257;1268;22493;-71
2022/08/07 04:16:23;;;;;;;7.70;2.50;;;;;;;15.35;68.60;101272.12;106360;1268;25180;-73
2022/08/07 04:19:00;;;;;;;4.80;2.80;;;;;;;15.38;68.62;101275.81;106514;1271;24224;-71
2022/08/07 04:21:39;;;;;;;5.90;3.50;;;;;;;15.38;68.37;101276.88;106336;1271;26495;-72
2022/08/07 04:24:27;;;;;;;7.80;3.70;;;;;;;15.28;68.40;101277.55;107049;1268;25440;-74
2022/08/07 04:27:05;;;;;;;6.10;3.30;;;;;;;15.30;68.69;101281.44;107036;1271;25289;-72
2022/08/07 04:29:47;;;;;;;6.50;3.30;;;;;;;15.31;68.65;101281.41;106640;1268;24299;-71
2022/08/07 04:32:43;;;;;;;5.90;3.20;;;;;;;15.31;68.76;101285.85;106595;1268;25228;-74
2022/08/07 04:35:15;;;;;;;5.00;2.80;;;;;;;15.31;68.36;101285.30;106500;1268;25229;-72
2022/08/07 04:37:44;;;;;;;5.60;2.90;;;;;;;15.37;68.35;101287.71;106579;1271;25229;-72
2022/08/07 04:40:31;;;;;;;6.00;3.00;;;;;;;15.44;68.40;101287.09;106510;1271;22561;-80
2022/08/07 04:42:59;;;;;;;4.80;3.20;;;;;;;15.45;68.23;101290.96;105972;1274;22557;-73
2022/08/07 04:45:41;;;;;;;5.30;3.20;;;;;;;15.47;68.24;101291.81;106141;1275;22550;-71
2022/08/07 04:48:49;;;;;;;6.90;4.00;;;;;;;15.50;68.18;101298.52;106611;1274;22532;-79
2022/08/07 04:51:42;;;;;;;5.70;3.00;;;;;;;15.55;68.11;101297.73;107259;1274;25330;-72
2022/08/07 04:54:23;;;;;;;5.70;2.80;;;;;;;15.55;67.86;101300.75;107013;1274;22549;-71
2022/08/07 04:57:12;;;;;;;3.00;1.80;;;;;;;15.61;68.01;101305.48;105876;1277;22559;-73
2022/08/07 05:00:07;;;;;;;5.10;2.10;;;;;;;15.62;67.68;101306.89;105922;1274;25424;-72
2022/08/07 05:02:51;;;;;;;5.90;2.20;;;;;;;15.57;67.78;101311.55;106561;1268;22464;-72
2022/08/07 05:05:29;;;;;;;3.40;1.80;;;;;;;15.59;67.84;101314.02;106254;1268;22475;-73
2022/08/07 05:08:26;;;;;;;3.10;1.80;;;;;;;15.69;67.77;101316.70;106244;1271;22549;-70
2022/08/07 05:11:21;;;;;;;3.20;1.70;;;;;;;15.76;67.58;101323.51;106462;1271;22535;-71
2022/08/07 05:14:00;;;;;;;4.70;2.10;;;;;;;15.82;67.29;101327.33;106299;1268;23188;-76
2022/08/07 05:16:48;;;;;;;2.40;1.90;;;;;;;15.83;67.14;101328.73;106350;1271;22541;-75
2022/08/07 05:19:22;;;;;;;4.20;1.80;;;;;;;15.78;67.10;101329.88;106453;1271;22551;-74
2022/08/07 05:22:12;;;;;;;5.20;1.70;;;;;;;15.77;67.19;101333.98;106336;1271;25226;-72
2022/08/07 05:24:56;;;;;;;3.80;1.80;;;;;;;15.77;67.09;101336.64;106489;1271;22681;-73
2022/08/07 05:27:28;;;;;;;2.20;1.40;;;;;;;15.80;66.99;101338.55;105999;1274;22553;-73
2022/08/07 05:30:17;;;;;;;1.60;1.10;;;;;;;15.79;66.58;101338.39;106111;1274;25348;-72
2022/08/07 05:32:58;;;;;;;3.00;1.40;;;;;;;15.82;66.85;101339.59;105970;1274;22544;-75
2022/08/07 05:35:30;;;;;;;2.10;1.20;;;;;;;15.88;66.37;101340.92;106178;1274;22797;-73
2022/08/07 05:38:03;;;;;;;2.60;1.30;;;;;;;15.84;66.00;101338.66;105118;1275;1259908;-73
2022/08/07 05:40:38;;;;;;;1.20;1.10;;;;;;;15.85;66.13;101337.94;106144;1274;22566;-73
2022/08/07 05:43:18;;;;;;;3.10;1.50;;;;;;;15.89;65.68;101338.06;105914;1274;22550;-75
2022/08/07 05:46:05;;;;;;;1.80;1.30;;;;;;;15.98;65.80;101341.30;106423;1268;22981;-71
2022/08/07 05:48:33;;;;;;;2.50;1.70;;;;;;;16.06;65.58;101341.00;106572;1268;22613;-73
2022/08/07 05:51:00;;;;;;;1.80;1.20;;;;;;;16.15;65.24;101338.01;106366;1271;25363;-72
2022/08/07 05:53:29;;;;;;;2.50;1.30;;;;;;;16.23;65.07;101342.14;106210;1268;25229;-74
2022/08/07 05:56:18;;;;;;;2.60;1.50;;;;;;;16.23;64.55;101341.43;106275;1268;25238;-73
2022/08/07 05:59:01;;;;;;;2.20;0.80;;;;;;;16.20;64.33;101338.63;106116;1276;25519;-76
2022/08/07 06:01:29;;;;;;;3.80;1.20;;;;;;;16.18;64.16;101337.25;105893;1277;22633;-74
2022/08/07 06:04:04;;;;;;;2.50;1.20;;;;;;;16.22;64.00;101340.20;105900;1277;22746;-72
2022/08/07 06:06:35;;;;;;;3.50;2.10;;;;;;;16.23;63.77;101341.80;106119;1276;22652;-74
2022/08/07 06:09:06;;;;;;;3.40;1.50;;;;;;;16.30;63.65;101340.08;105904;1277;24364;-72
2022/08/07 06:11:36;;;;;;;3.10;1.10;;;;;;;16.29;63.39;101343.10;105976;1276;22553;-72
2022/08/07 06:14:04;;;;;;;4.20;1.30;;;;;;;16.30;63.09;101344.51;105913;1276;25389;-72
2022/08/07 06:16:50;;;;;;;3.40;1.10;;;;;;;16.24;62.68;101336.98;105880;1268;25278;-76
2022/08/07 06:19:27;;;;;;;2.10;1.00;;;;;;;16.25;62.76;101339.27;106046;1274;25303;-74
2022/08/07 06:22:17;;;;;;;4.50;1.20;;;;;;;16.30;62.57;101338.10;105837;1277;25244;-69
2022/08/07 06:25:28;;;;;;;3.10;1.10;;;;;;;16.31;62.27;101338.10;105943;1277;22832;-76
2022/08/07 06:28:04;;;;;;;5.10;1.10;;;;;;;16.34;62.24;101340.71;105814;1277;22547;-70
2022/08/07 06:30:34;;;;;;;1.70;0.90;;;;;;;16.40;62.59;101340.77;105799;1276;22530;-71
2022/08/07 06:33:12;;;;;;;2.60;0.90;;;;;;;16.45;61.74;101341.40;105939;1277;24932;-70
2022/08/07 06:35:44;;;;;;;2.70;0.90;;;;;;;16.49;61.83;101339.18;106180;1276;22549;-74
2022/08/07 06:38:32;;;;;;;3.70;1.40;;;;;;;16.60;61.67;101341.64;106282;1268;25298;-74
2022/08/07 06:41:04;;;;;;;5.30;1.40;;;;;;;16.67;61.42;101344.20;106363;1271;22483;-70
2022/08/07 06:43:38;;;;;;;1.50;1.00;;;;;;;16.70;60.73;101346.10;106496;1271;22584;-73
2022/08/07 06:46:17;;;;;;;4.30;0.70;;;;;;;16.74;60.42;101345.13;106094;1274;25318;-72
2022/08/07 06:49:03;;;;;;;5.00;1.10;;;;;;;16.75;59.75;101348.83;106106;1274;25241;-71
2022/08/07 06:51:33;;;;;;;1.70;0.90;;;;;;;16.73;59.76;101348.35;105439;1280;23001;-71
2022/08/07 06:54:17;;;;;;;1.10;0.90;;;;;;;16.71;59.47;101351.03;104634;1287;22571;-70
2022/08/07 06:57:07;;;;;;;2.30;1.00;;;;;;;16.72;59.43;101349.42;104974;1287;22766;-70
2022/08/07 06:59:40;;;;;;;3.80;1.00;;;;;;;16.77;59.39;101353.61;104389;1291;22577;-74
2022/08/07 07:02:28;;;;;;;2.90;0.90;;;;;;;16.85;59.49;101355.76;104537;1290;24316;-72
2022/08/07 07:05:19;;;;;;;1.50;1.00;;;;;;;16.91;58.94;101358.66;104871;1287;22789;-71
2022/08/07 07:08:07;;;;;;;4.70;1.00;;;;;;;16.90;58.69;101353.88;104844;1287;26573;-74
2022/08/07 07:10:44;;;;;;;2.30;0.70;;;;;;;16.93;58.43;101356.83;105367;1281;24219;-74
2022/08/07 07:13:38;;;;;;;4.90;1.20;;;;;;;16.95;57.34;101353.77;105822;1274;22655;-74
2022/08/07 07:16:31;;;;;;;2.60;1.10;;;;;;;17.03;57.01;101350.23;106023;1274;22765;-72
2022/08/07 07:19:03;;;;;;;5.70;1.20;;;;;;;17.04;56.40;101344.34;106467;1268;22810;-74
2022/08/07 07:21:54;;;;;;;2.60;0.70;;;;;;;17.12;56.26;101351.17;106654;1271;22922;-74
2022/08/07 07:24:41;;;;;;;2.10;0.80;;;;;;;17.22;56.29;101346.68;106995;1271;23879;-72
2022/08/07 07:27:30;;;;;;;2.60;0.80;;;;;;;17.29;55.52;101346.52;108302;1271;22522;-71
2022/08/07 07:30:23;;;;;;;1.00;0.90;;;;;;;17.34;54.31;101345.52;108355;1271;25370;-72
2022/08/07 07:33:05;;;;;;;2.40;1.00;;;;;;;17.37;54.16;101340.98;108305;1271;23885;-71
2022/08/07 07:35:36;;;;;;;1.40;0.60;;;;;;;17.43;54.15;101344.77;108561;1271;23756;-79
2022/08/07 07:38:24;;;;;;;5.30;1.00;;;;;;;17.52;54.11;101334.78;108920;1270;24250;-73
2022/08/07 07:41:00;;;;;;;2.00;0.80;;;;;;;17.62;53.75;101336.53;108241;1271;22640;-70
2022/08/07 07:43:31;;;;;;;3.60;1.10;;;;;;;17.72;52.75;101335.58;107775;1271;22531;-74
2022/08/07 07:46:21;;;;;;;1.60;1.00;;;;;;;17.78;52.46;101331.52;106545;1271;22600;-75
2022/08/07 07:49:13;;;;;;;1.90;1.20;;;;;;;17.88;52.84;101329.13;106538;1271;22546;-74
2022/08/07 07:52:02;;;;;;;2.40;0.80;;;;;;;17.99;52.65;101331.38;107293;1271;23472;-72
2022/08/07 07:54:32;;;;;;;1.60;1.00;;;;;;;18.03;52.51;101330.38;107529;1271;22710;-71
2022/08/07 07:57:03;;;;;;;2.80;1.10;;;;;;;18.05;52.77;101327.09;107774;1268;22945;-72
2022/08/07 07:59:33;;;;;;;2.20;1.20;;;;;;;18.09;53.17;101330.39;107386;1271;22749;-71
2022/08/07 08:02:21;;;;;;;4.40;1.10;;;;;;;18.18;53.50;101326.27;106467;1268;24304;-74
2022/08/07 08:05:07;;;;;;;1.70;0.90;;;;;;;18.30;53.46;101325.45;106388;1271;26449;-76
2022/08/07 08:07:42;;;;;;;1.30;0.80;;;;;;;18.43;53.13;101328.65;106481;1271;25589;-73
2022/08/07 08:10:29;;;;;;;1.40;1.10;;;;;;;18.52;52.78;101330.00;106458;1271;23915;-73
2022/08/07 08:13:06;;;;;;;2.60;0.70;;;;;;;18.67;52.58;101325.33;106548;1270;22827;-72
2022/08/07 08:15:42;;;;;;;1.40;0.90;;;;;;;18.82;52.75;101323.48;106397;1271;25362;-72
2022/08/07 08:18:30;;;;;;;2.50;1.10;;;;;;;19.00;52.05;101323.11;106382;1268;22543;-72
2022/08/07 08:21:00;;;;;;;4.30;1.10;;;;;;;19.14;51.25;101324.71;106538;1270;25332;-73
2022/08/07 08:29:09;;;;;;;2.10;1.00;;;;;;;19.55;49.66;101323.63;106617;1271;26490;-76
2022/08/07 08:31:39;;;;;;;2.20;1.00;;;;;;;19.60;48.62;101317.21;106413;1268;22593;-74
2022/08/07 08:34:32;;;;;;;2.20;1.10;;;;;;;19.55;47.06;101319.72;106327;1269;22551;-73
2022/08/07 08:37:02;;;;;;;1.50;0.90;;;;;;;19.51;47.01;101323.58;106293;1271;23973;-74
2022/08/07 08:39:36;;;;;;;1.10;0.80;;;;;;;19.60;46.98;101319.91;106166;1268;22605;-72
2022/08/07 08:42:49;;;;;;;2.70;0.90;;;;;;;19.70;46.30;101321.71;106414;1269;22695;-77
2022/08/07 08:45:25;;;;;;;3.00;1.00;;;;;;;19.78;47.00;101321.80;106432;1271;22551;-77
2022/08/07 08:48:35;;;;;;;1.30;0.90;;;;;;;19.99;47.76;101322.05;106435;1268;24214;-73
2022/08/07 08:51:36;;;;;;;1.80;0.80;;;;;;;20.20;47.87;101319.56;106940;1271;25424;-73
2022/08/07 08:54:58;;;;;;;2.90;1.20;;;;;;;20.46;47.44;101321.52;106570;1268;22544;-75
2022/08/07 08:57:54;;;;;;;2.00;1.10;;;;;;;20.71;47.09;101325.11;106327;1271;25226;-74
2022/08/07 09:00:25;;;;;;;1.70;0.80;;;;;;;20.85;46.21;101321.55;106340;1268;24704;-73
2022/08/07 09:03:11;;;;;;;1.70;0.90;;;;;;;20.98;46.40;101320.92;106413;1271;22698;-70
2022/08/07 09:05:52;;;;;;;1.60;1.10;;;;;;;21.09;44.96;101324.09;106285;1271;24077;-72
2022/08/07 09:08:47;;;;;;;2.00;0.80;;;;;;;21.16;44.27;101321.84;106510;1271;22752;-73
2022/08/07 09:11:34;;;;;;;4.40;0.80;;;;;;;21.24;43.90;101322.77;106423;1268;22676;-74
2022/08/07 09:14:44;;;;;;;1.90;1.10;;;;;;;21.24;42.94;101314.89;106400;1270;22658;-73
2022/08/07 09:17:40;;;;;;;1.70;1.10;;;;;;;21.35;43.68;101310.89;106326;1271;25284;-73
2022/08/07 09:20:40;;;;;;;3.70;2.10;;;;;;;21.53;43.87;101308.58;106283;1271;25194;-75
2022/08/07 09:23:51;;;;;;;1.40;1.00;;;;;;;21.73;43.48;101311.70;106441;1268;26503;-71
2022/08/07 09:26:44;;;;;;;0.90;0.90;;;;;;;21.89;43.58;101307.84;106244;1271;22491;-73
2022/08/07 09:29:16;;;;;;;2.40;1.40;;;;;;;21.99;42.93;101301.15;106593;1271;22586;-73
2022/08/07 09:32:14;;;;;;;1.00;0.90;;;;;;;22.11;41.79;101299.21;106686;1271;24172;-74
2022/08/07 09:35:07;;;;;;;1.60;1.00;;;;;;;22.09;41.72;101298.73;106580;1271;25237;-77
2022/08/07 09:38:05;;;;;;;2.40;1.20;;;;;;;22.07;39.77;101295.61;106605;1271;25386;-71
2022/08/07 09:40:55;;;;;;;1.10;0.70;;;;;;;21.92;40.51;101298.05;106597;1271;25332;-72
2022/08/07 09:43:46;;;;;;;1.60;0.80;;;;;;;21.97;40.92;101296.73;106287;1271;22827;-74
2022/08/07 09:46:47;;;;;;;2.00;0.80;;;;;;;22.13;40.47;101292.50;106500;1271;25231;-73
2022/08/07 09:50:01;;;;;;;1.40;0.70;;;;;;;22.34;39.80;101294.44;106399;1271;22618;-73
2022/08/07 09:53:04;;;;;;;2.20;0.90;;;;;;;22.56;39.89;101290.61;106317;1271;25294;-74
2022/08/07 09:56:02;;;;;;;2.40;0.90;;;;;;;22.70;39.63;101282.98;106332;1268;25235;-72
2022/08/07 09:58:47;;;;;;;1.60;0.80;;;;;;;22.79;39.41;101274.67;106313;1271;25222;-71
2022/08/07 10:01:33;;;;;;;0.60;0.60;;;;;;;22.94;38.94;101272.92;106321;1270;26637;-72
2022/08/07 10:04:42;;;;;;;3.20;0.70;;;;;;;23.06;38.46;101273.23;106350;1268;24226;-70
2022/08/07 10:07:25;;;;;;;0.60;0.60;;;;;;;23.09;37.97;101275.42;106016;1274;22577;-71
2022/08/07 10:10:27;;;;;;;1.70;0.60;;;;;;;23.13;37.95;101276.31;106460;1277;26692;-74
2022/08/07 10:13:16;;;;;;;2.00;0.50;;;;;;;23.28;38.34;101266.81;106404;1274;26484;-72
2022/08/07 10:16:28;;;;;;;1.20;0.60;;;;;;;23.59;37.97;101269.63;106126;1277;25374;-73
2022/08/07 10:19:52;;;;;;;1.30;0.70;;;;;;;23.73;37.19;101268.94;106254;1277;25242;-74
2022/08/07 10:22:32;;;;;;;0.70;0.60;;;;;;;23.92;37.25;101260.61;105611;1280;25249;-72
2022/08/07 10:25:35;;;;;;;1.40;0.80;;;;;;;24.13;36.76;101257.73;106134;1271;25302;-71
2022/08/07 10:28:29;;;;;;;2.30;0.70;;;;;;;24.35;35.99;101258.26;106677;1271;25412;-74
2022/08/07 10:31:27;;;;;;;0.50;0.50;;;;;;;24.42;35.52;101260.04;106754;1271;23343;-71
2022/08/07 10:34:04;;;;;;;1.40;0.60;;;;;;;24.38;35.20;101254.13;106751;1268;23913;-74
2022/08/07 10:36:55;;;;;;;1.50;0.70;;;;;;;24.58;35.58;101260.28;106784;1271;25882;-73
2022/08/07 10:39:43;;;;;;;1.20;0.70;;;;;;;24.74;35.38;101253.98;107323;1277;22547;-73
2022/08/07 10:42:56;;;;;;;2.60;0.70;;;;;;;24.96;34.63;101251.90;107924;1274;22573;-73
2022/08/07 10:45:36;;;;;;;1.30;0.50;;;;;;;25.01;33.86;101250.41;106837;1277;22707;-72
2022/08/07 10:48:40;;;;;;;1.30;0.80;;;;;;;25.10;34.31;101254.73;108496;1276;23890;-72
2022/08/07 10:51:21;;;;;;;2.30;0.50;;;;;;;25.19;33.65;101251.66;106631;1276;25370;-73
2022/08/07 10:54:38;;;;;;;1.10;0.70;;;;;;;25.17;33.46;101252.35;106313;1276;24345;-73
2022/08/07 10:57:18;;;;;;;1.60;0.50;;;;;;;25.26;33.60;101247.30;106101;1271;25578;-74
2022/08/07 11:00:08;;;;;;;2.80;0.70;;;;;;;25.42;33.40;101241.34;106242;1271;23921;-76
2022/08/07 11:03:06;;;;;;;1.20;0.60;;;;;;;25.42;32.48;101242.60;106421;1271;22618;-73
2022/08/07 11:06:13;;;;;;;4.90;0.90;;;;;;;25.36;33.09;101240.48;106443;1271;24258;-78
2022/08/07 11:09:11;;;;;;;2.40;0.70;;;;;;;25.49;33.22;101239.55;106452;1271;22518;-70
2022/08/07 11:12:03;;;;;;;0.70;0.50;;;;;;;25.65;33.22;101238.27;106604;1271;23076;-70
2022/08/07 11:14:46;;;;;;;1.30;0.70;;;;;;;25.87;33.02;101231.73;106435;1271;25573;-71
2022/08/07 11:17:35;;;;;;;0.50;0.40;;;;;;;26.07;32.38;101233.75;106413;1271;22605;-70
2022/08/07 11:20:22;;;;;;;1.30;0.70;;;;;;;26.00;32.00;101228.60;106466;1271;25357;-71
2022/08/07 11:22:54;;;;;;;1.20;0.50;;;;;;;26.13;32.51;101233.77;106406;1271;22531;-70
2022/08/07 11:25:29;;;;;;;1.30;0.70;;;;;;;26.25;31.18;101231.96;106517;1271;25350;-70
2022/08/07 11:28:20;;;;;;;0.90;0.60;;;;;;;26.12;30.81;101227.70;106472;1271;25243;-78
2022/08/07 11:30:50;;;;;;;0.50;0.50;;;;;;;26.16;30.58;101223.85;106303;1271;25190;-72
2022/08/07 11:33:28;;;;;;;0.60;0.60;;;;;;;26.21;31.06;101222.82;106433;1271;22561;-73
2022/08/07 11:36:55;;;;;;;1.20;0.70;;;;;;;26.51;31.53;101220.95;106775;1268;22561;-70
2022/08/07 11:39:53;;;;;;;1.70;0.60;;;;;;;26.84;31.44;101226.11;106516;1268;22522;-73
2022/08/07 11:42:52;;;;;;;1.30;0.70;;;;;;;27.10;30.44;101220.63;106612;1270;23912;-73
2022/08/07 11:45:44;;;;;;;2.80;0.70;;;;;;;27.37;30.39;101217.61;106383;1271;23942;-72
2022/08/07 11:48:43;;;;;;;1.40;0.60;;;;;;;27.54;30.19;101209.46;106294;1271;22687;-75
2022/08/07 11:51:49;;;;;;;1.50;0.60;;;;;;;27.58;29.42;101207.70;106473;1268;22542;-72
2022/08/07 11:54:31;;;;;;;1.00;0.70;;;;;;;27.62;29.10;101206.73;106405;1271;22553;-70
2022/08/07 11:57:23;;;;;;;0.70;0.50;;;;;;;27.67;29.21;101200.22;106405;1268;22563;-73
2022/08/07 12:00:33;;;;;;;0.70;0.50;;;;;;;27.86;29.10;101195.35;106333;1271;22543;-76
2022/08/07 12:03:35;;;;;;;0.50;0.50;;;;;;;28.08;29.03;101201.41;106297;1271;22554;-74
2022/08/07 12:06:36;;;;;;;1.40;0.60;;;;;;;28.28;29.10;101196.45;106456;1271;25351;-71
2022/08/07 12:09:52;;;;;;;1.40;0.70;;;;;;;28.47;29.03;101196.17;106362;1271;24262;-69
2022/08/07 12:12:34;;;;;;;1.60;0.90;;;;;;;28.64;29.20;101191.16;105681;1277;22539;-70
2022/08/07 12:15:20;;;;;;;1.50;0.80;;;;;;;28.71;29.05;101189.37;106095;1271;22551;-73
2022/08/07 12:18:06;;;;;;;0.70;0.70;;;;;;;28.63;28.81;101187.02;106437;1268;23903;-72
2022/08/07 12:20:45;;;;;;;0.90;0.70;;;;;;;28.45;28.79;101183.42;106345;1271;23198;-74
2022/08/07 12:23:23;;;;;;;1.60;0.80;;;;;;;28.45;29.11;101183.64;106374;1270;25497;-73
2022/08/07 12:26:25;;;;;;;3.10;1.30;;;;;;;28.64;29.36;101181.87;106377;1271;22534;-71
2022/08/07 12:29:16;;;;;;;1.20;0.70;;;;;;;28.74;28.72;101182.61;106402;1271;25235;-71
2022/08/07 12:32:38;;;;;;;1.10;0.90;;;;;;;28.41;28.60;101186.44;106374;1268;23058;-71
2022/08/07 12:35:09;;;;;;;0.40;0.40;;;;;;;28.36;29.00;101184.45;106376;1269;24419;-72